sensor_id;sensor_type;location;lat;lon;timestamp;pressure;altitude;pressure_sealevel;temperature;humidity
51287;BME280;37364;46.974;18.916;2023-04-07T00:00:42;150840.22;;;1.94;100.00
51287;BME280;37364;46.974;18.916;2023-04-07T00:03:13;150836.41;;;1.92;100.00
51287;BME280;37364;46.974;18.916;2023-04-07T00:05:43;150828.66;;;1.89;100.00
51287;BME280;37364;46.974;18.916;2023-04-07T00:08:14;150836.41;;;1.92;100.00
51287;BME280;37364;46.974;18.916;2023-04-07T00:10:49;150846.69;;;1.96;100.00
51287;BME280;37364;46.974;18.916;2023-04-07T00:13:20;150845.34;;;1.96;100.00
51287;BME280;37364;46.974;18.916;2023-04-07T00:15:51;150846.69;;;1.96;100.00
51287;BME280;37364;46.974;18.916;2023-04-07T00:18:22;150842.81;;;1.95;100.00
51287;BME280;37364;46.974;18.916;2023-04-07T00:20:52;150837.66;;;1.93;100.00
51287;BME280;37364;46.974;18.916;2023-04-07T00:23:23;150829.94;;;1.90;100.00
51287;BME280;37364;46.974;18.916;2023-04-07T00:25:57;150823.50;;;1.87;100.00
51287;BME280;37364;46.974;18.916;2023-04-07T00:28:28;150838.94;;;1.93;100.00
51287;BME280;37364;46.974;18.916;2023-04-07T00:30:58;150842.81;;;1.95;100.00
51287;BME280;37364;46.974;18.916;2023-04-07T00:33:29;150824.78;;;1.88;100.00
51287;BME280;37364;46.974;18.916;2023-04-07T00:35:59;150824.78;;;1.88;100.00
51287;BME280;37364;46.974;18.916;2023-04-07T00:38:30;150836.41;;;1.92;100.00
51287;BME280;37364;46.974;18.916;2023-04-07T00:41:03;150831.25;;;1.90;100.00
51287;BME280;37364;46.974;18.916;2023-04-07T00:43:34;150845.34;;;1.96;100.00
51287;BME280;37364;46.974;18.916;2023-04-07T00:46:04;150844.09;;;1.95;100.00
51287;BME280;37364;46.974;18.916;2023-04-07T00:48:35;150844.09;;;1.95;100.00
51287;BME280;37364;46.974;18.916;2023-04-07T00:51:06;150856.97;;;2.01;100.00
51287;BME280;37364;46.974;18.916;2023-04-07T00:53:37;150844.09;;;1.95;100.00
51287;BME280;37364;46.974;18.916;2023-04-07T00:56:11;150855.69;;;2.00;100.00
51287;BME280;37364;46.974;18.916;2023-04-07T00:58:41;150846.69;;;1.96;100.00
51287;BME280;37364;46.974;18.916;2023-04-07T01:01:15;150842.81;;;1.95;100.00
51287;BME280;37364;46.974;18.916;2023-04-07T01:03:51;150833.78;;;1.91;100.00
51287;BME280;37364;46.974;18.916;2023-04-07T01:06:25;150835.06;;;1.92;100.00
51287;BME280;37364;46.974;18.916;2023-04-07T01:09:01;150828.66;;;1.89;100.00
51287;BME280;37364;46.974;18.916;2023-04-07T01:11:39;150822.25;;;1.87;100.00
51287;BME280;37364;46.974;18.916;2023-04-07T01:14:17;150819.63;;;1.86;100.00
51287;BME280;37364;46.974;18.916;2023-04-07T01:17:01;150822.25;;;1.87;100.00
51287;BME280;37364;46.974;18.916;2023-04-07T01:19:36;150826.09;;;1.88;100.00
51287;BME280;37364;46.974;18.916;2023-04-07T01:22:12;150826.09;;;1.88;100.00
51287;BME280;37364;46.974;18.916;2023-04-07T01:28:05;150808.09;;;1.81;100.00
51287;BME280;37364;46.974;18.916;2023-04-07T01:30:43;150822.25;;;1.87;100.00
51287;BME280;37364;46.974;18.916;2023-04-07T01:33:16;150826.09;;;1.88;100.00
51287;BME280;37364;46.974;18.916;2023-04-07T01:35:49;150813.22;;;1.83;100.00
51287;BME280;37364;46.974;18.916;2023-04-07T01:38:22;150811.94;;;1.83;100.00
51287;BME280;37364;46.974;18.916;2023-04-07T01:40:55;150809.34;;;1.82;100.00
51287;BME280;37364;46.974;18.916;2023-04-07T01:43:26;150804.22;;;1.80;100.00
51287;BME280;37364;46.974;18.916;2023-04-07T01:46:01;150808.09;;;1.81;100.00
51287;BME280;37364;46.974;18.916;2023-04-07T01:48:34;150808.09;;;1.81;100.00
51287;BME280;37364;46.974;18.916;2023-04-07T01:51:05;150804.22;;;1.80;100.00
51287;BME280;37364;46.974;18.916;2023-04-07T01:53:39;150808.09;;;1.81;100.00
51287;BME280;37364;46.974;18.916;2023-04-07T01:56:10;150817.09;;;1.85;100.00
51287;BME280;37364;46.974;18.916;2023-04-07T01:58:40;150815.78;;;1.84;100.00
51287;BME280;37364;46.974;18.916;2023-04-07T02:01:19;150818.38;;;1.85;100.00
51287;BME280;37364;46.974;18.916;2023-04-07T02:03:53;150826.09;;;1.88;100.00
51287;BME280;37364;46.974;18.916;2023-04-07T02:06:32;150831.25;;;1.90;100.00
51287;BME280;37364;46.974;18.916;2023-04-07T02:09:06;150836.41;;;1.92;100.00
51287;BME280;37364;46.974;18.916;2023-04-07T02:11:38;150837.66;;;1.93;100.00
51287;BME280;37364;46.974;18.916;2023-04-07T02:14:10;150846.69;;;1.96;100.00
51287;BME280;37364;46.974;18.916;2023-04-07T02:17:00;150858.25;;;2.01;100.00
51287;BME280;37364;46.974;18.916;2023-04-07T02:19:31;150859.50;;;2.02;100.00
51287;BME280;37364;46.974;18.916;2023-04-07T02:22:04;150864.66;;;2.04;100.00
51287;BME280;37364;46.974;18.916;2023-04-07T02:24:40;150862.09;;;2.03;100.00
51287;BME280;37364;46.974;18.916;2023-04-07T02:27:11;150892.97;;;2.15;100.00
51287;BME280;37364;46.974;18.916;2023-04-07T02:29:41;150881.41;;;2.10;100.00
51287;BME280;37364;46.974;18.916;2023-04-07T02:32:16;150894.25;;;2.15;100.00
51287;BME280;37364;46.974;18.916;2023-04-07T02:34:47;150886.56;;;2.12;100.00
51287;BME280;37364;46.974;18.916;2023-04-07T02:37:17;150850.53;;;1.98;100.00
51287;BME280;37364;46.974;18.916;2023-04-07T02:39:48;150814.50;;;1.84;100.00
51287;BME280;37364;46.974;18.916;2023-04-07T02:42:19;150764.34;;;1.64;100.00
51287;BME280;37364;46.974;18.916;2023-04-07T02:44:49;150715.47;;;1.44;100.00
51287;BME280;37364;46.974;18.916;2023-04-07T02:47:22;150679.50;;;1.30;100.00
51287;BME280;37364;46.974;18.916;2023-04-07T02:49:53;150707.75;;;1.41;100.00
51287;BME280;37364;46.974;18.916;2023-04-07T02:52:24;150615.22;;;1.04;100.00
51287;BME280;37364;46.974;18.916;2023-04-07T02:54:54;150613.91;;;1.04;100.00
51287;BME280;37364;46.974;18.916;2023-04-07T02:57:26;150647.34;;;1.17;100.00
51287;BME280;37364;46.974;18.916;2023-04-07T03:00:00;150601.09;;;0.98;100.00
51287;BME280;37364;46.974;18.916;2023-04-07T03:02:49;150608.75;;;1.02;100.00
51287;BME280;37364;46.974;18.916;2023-04-07T03:05:20;150588.22;;;0.93;100.00
51287;BME280;37364;46.974;18.916;2023-04-07T03:07:50;150628.06;;;1.09;100.00
51287;BME280;37364;46.974;18.916;2023-04-07T03:10:21;150620.38;;;1.06;100.00
51287;BME280;37364;46.974;18.916;2023-04-07T03:12:51;150635.78;;;1.12;100.00
51287;BME280;37364;46.974;18.916;2023-04-07T03:15:22;150607.50;;;1.01;100.00
51287;BME280;37364;46.974;18.916;2023-04-07T03:17:57;150598.47;;;0.97;100.00
51287;BME280;37364;46.974;18.916;2023-04-07T03:20:28;150604.94;;;1.00;100.00
51287;BME280;37364;46.974;18.916;2023-04-07T03:23:05;150611.34;;;1.03;100.00
51287;BME280;37364;46.974;18.916;2023-04-07T03:25:35;150619.03;;;1.06;100.00
51287;BME280;37364;46.974;18.916;2023-04-07T03:28:05;150643.47;;;1.15;100.00
51287;BME280;37364;46.974;18.916;2023-04-07T03:30:38;150651.19;;;1.18;100.00
51287;BME280;37364;46.974;18.916;2023-04-07T03:33:11;150639.66;;;1.14;100.00
51287;BME280;37364;46.974;18.916;2023-04-07T03:35:41;150643.47;;;1.15;100.00
51287;BME280;37364;46.974;18.916;2023-04-07T03:38:12;150651.19;;;1.18;100.00
51287;BME280;37364;46.974;18.916;2023-04-07T03:40:42;150635.78;;;1.12;100.00
51287;BME280;37364;46.974;18.916;2023-04-07T03:43:13;150658.94;;;1.22;100.00
51287;BME280;37364;46.974;18.916;2023-04-07T03:45:44;150637.06;;;1.13;100.00
51287;BME280;37364;46.974;18.916;2023-04-07T03:48:20;150648.59;;;1.17;100.00
51287;BME280;37364;46.974;18.916;2023-04-07T03:51:01;150656.34;;;1.21;100.00
51287;BME280;37364;46.974;18.916;2023-04-07T03:53:31;150667.91;;;1.25;100.00
51287;BME280;37364;46.974;18.916;2023-04-07T03:56:12;150664.06;;;1.24;100.00
51287;BME280;37364;46.974;18.916;2023-04-07T03:58:49;150678.16;;;1.29;100.00
51287;BME280;37364;46.974;18.916;2023-04-07T04:01:26;150691.06;;;1.34;100.00
51287;BME280;37364;46.974;18.916;2023-04-07T04:04:05;150701.34;;;1.38;100.00
51287;BME280;37364;46.974;18.916;2023-04-07T04:06:36;150697.47;;;1.37;100.00
51287;BME280;37364;46.974;18.916;2023-04-07T04:09:45;150685.91;;;1.32;100.00
51287;BME280;37364;46.974;18.916;2023-04-07T04:12:16;150680.78;;;1.30;100.00
51287;BME280;37364;46.974;18.916;2023-04-07T04:15:01;150684.63;;;1.32;100.00
51287;BME280;37364;46.974;18.916;2023-04-07T04:17:32;150680.78;;;1.30;100.00
51287;BME280;37364;46.974;18.916;2023-04-07T04:20:08;150675.63;;;1.28;100.00
51287;BME280;37364;46.974;18.916;2023-04-07T04:22:45;150683.38;;;1.31;100.00
51287;BME280;37364;46.974;18.916;2023-04-07T04:25:16;150692.31;;;1.35;100.00
51287;BME280;37364;46.974;18.916;2023-04-07T04:27:52;150683.38;;;1.31;100.00
51287;BME280;37364;46.974;18.916;2023-04-07T04:30:25;150669.22;;;1.26;100.00
51287;BME280;37364;46.974;18.916;2023-04-07T04:33:01;150691.06;;;1.34;100.00
51287;BME280;37364;46.974;18.916;2023-04-07T04:35:52;150684.63;;;1.32;100.00
51287;BME280;37364;46.974;18.916;2023-04-07T04:38:25;150696.19;;;1.36;100.00
51287;BME280;37364;46.974;18.916;2023-04-07T04:41:03;150718.06;;;1.45;100.00
51287;BME280;37364;46.974;18.916;2023-04-07T04:43:33;150721.91;;;1.47;100.00
51287;BME280;37364;46.974;18.916;2023-04-07T04:46:06;150714.22;;;1.44;100.00
51287;BME280;37364;46.974;18.916;2023-04-07T04:48:40;150732.19;;;1.51;100.00
51287;BME280;37364;46.974;18.916;2023-04-07T04:51:14;150720.63;;;1.46;100.00
51287;BME280;37364;46.974;18.916;2023-04-07T04:53:49;150732.19;;;1.51;100.00
51287;BME280;37364;46.974;18.916;2023-04-07T04:56:22;150733.50;;;1.51;100.00
51287;BME280;37364;46.974;18.916;2023-04-07T04:58:53;150752.78;;;1.59;100.00
51287;BME280;37364;46.974;18.916;2023-04-07T05:01:32;150743.78;;;1.55;100.00
51287;BME280;37364;46.974;18.916;2023-04-07T05:04:09;150764.34;;;1.64;100.00
51287;BME280;37364;46.974;18.916;2023-04-07T05:06:50;150793.94;;;1.75;100.00
51287;BME280;37364;46.974;18.916;2023-04-07T05:09:26;150801.66;;;1.78;100.00
51287;BME280;37364;46.974;18.916;2023-04-07T05:11:57;150814.50;;;1.84;100.00
51287;BME280;37364;46.974;18.916;2023-04-07T05:14:34;150829.94;;;1.90;100.00
51287;BME280;37364;46.974;18.916;2023-04-07T05:17:07;150847.94;;;1.97;100.00
51287;BME280;37364;46.974;18.916;2023-04-07T05:19:38;150855.69;;;2.00;100.00
51287;BME280;37364;46.974;18.916;2023-04-07T05:22:23;150889.09;;;2.13;100.00
51287;BME280;37364;46.974;18.916;2023-04-07T05:24:53;150914.88;;;2.24;100.00
51287;BME280;37364;46.974;18.916;2023-04-07T05:27:23;150917.41;;;2.25;100.00
51287;BME280;37364;46.974;18.916;2023-04-07T05:29:59;150921.28;;;2.26;100.00
51287;BME280;37364;46.974;18.916;2023-04-07T05:32:33;150911.00;;;2.22;100.00
51287;BME280;37364;46.974;18.916;2023-04-07T05:35:11;150945.72;;;2.36;100.00
51287;BME280;37364;46.974;18.916;2023-04-07T05:37:51;150977.88;;;2.49;100.00
51287;BME280;37364;46.974;18.916;2023-04-07T05:40:22;150985.63;;;2.52;100.00
51287;BME280;37364;46.974;18.916;2023-04-07T05:42:55;150981.75;;;2.50;100.00
51287;BME280;37364;46.974;18.916;2023-04-07T05:45:27;150965.03;;;2.44;100.00
51287;BME280;37364;46.974;18.916;2023-04-07T05:47:58;150952.16;;;2.38;100.00
51287;BME280;37364;46.974;18.916;2023-04-07T05:50:42;150965.03;;;2.44;100.00
51287;BME280;37364;46.974;18.916;2023-04-07T05:53:18;150981.75;;;2.50;100.00
51287;BME280;37364;46.974;18.916;2023-04-07T05:55:48;151003.66;;;2.59;100.00
51287;BME280;37364;46.974;18.916;2023-04-07T05:58:36;151024.25;;;2.67;100.00
51287;BME280;37364;46.974;18.916;2023-04-07T06:01:07;151020.38;;;2.66;100.00
51287;BME280;37364;46.974;18.916;2023-04-07T06:03:38;151040.94;;;2.74;100.00
51287;BME280;37364;46.974;18.916;2023-04-07T06:06:14;151031.94;;;2.70;100.00
51287;BME280;37364;46.974;18.916;2023-04-07T06:08:50;151010.06;;;2.62;100.00
51287;BME280;37364;46.974;18.916;2023-04-07T06:11:22;151037.09;;;2.72;100.00
51287;BME280;37364;46.974;18.916;2023-04-07T06:13:53;151075.69;;;2.88;100.00
51287;BME280;37364;46.974;18.916;2023-04-07T06:16:23;151137.53;;;3.12;100.00
51287;BME280;37364;46.974;18.916;2023-04-07T06:18:58;151098.88;;;2.97;100.00
51287;BME280;37364;46.974;18.916;2023-04-07T06:21:29;151110.47;;;3.02;100.00
51287;BME280;37364;46.974;18.916;2023-04-07T06:24:02;151118.19;;;3.05;100.00
51287;BME280;37364;46.974;18.916;2023-04-07T06:26:34;151142.66;;;3.14;100.00
51287;BME280;37364;46.974;18.916;2023-04-07T06:29:04;151097.63;;;2.96;100.00
51287;BME280;37364;46.974;18.916;2023-04-07T06:31:35;151095.00;;;2.95;100.00
51287;BME280;37364;46.974;18.916;2023-04-07T06:34:05;151140.06;;;3.13;100.00
51287;BME280;37364;46.974;18.916;2023-04-07T06:36:37;151127.22;;;3.08;100.00
51287;BME280;37364;46.974;18.916;2023-04-07T06:39:10;151128.50;;;3.09;100.00
51287;BME280;37364;46.974;18.916;2023-04-07T06:41:40;151162.00;;;3.22;100.00
51287;BME280;37364;46.974;18.916;2023-04-07T06:44:13;151210.91;;;3.42;100.00
51287;BME280;37364;46.974;18.916;2023-04-07T06:46:45;151201.91;;;3.38;100.00
51287;BME280;37364;46.974;18.916;2023-04-07T06:49:19;151195.47;;;3.35;100.00
51287;BME280;37364;46.974;18.916;2023-04-07T06:51:49;151182.56;;;3.30;100.00
51287;BME280;37364;46.974;18.916;2023-04-07T06:54:22;151171.00;;;3.26;100.00
51287;BME280;37364;46.974;18.916;2023-04-07T06:56:53;151174.84;;;3.27;100.00
51287;BME280;37364;46.974;18.916;2023-04-07T06:59:23;151171.00;;;3.26;100.00
51287;BME280;37364;46.974;18.916;2023-04-07T07:01:54;151189.00;;;3.33;100.00
51287;BME280;37364;46.974;18.916;2023-04-07T07:04:25;151200.63;;;3.38;100.00
51287;BME280;37364;46.974;18.916;2023-04-07T07:06:56;151195.47;;;3.35;100.00
51287;BME280;37364;46.974;18.916;2023-04-07T07:09:33;151200.63;;;3.38;100.00
51287;BME280;37364;46.974;18.916;2023-04-07T07:12:04;151214.78;;;3.43;100.00
51287;BME280;37364;46.974;18.916;2023-04-07T07:14:36;151240.53;;;3.53;100.00
51287;BME280;37364;46.974;18.916;2023-04-07T07:17:07;151289.50;;;3.73;100.00
51287;BME280;37364;46.974;18.916;2023-04-07T07:19:38;151274.03;;;3.67;100.00
51287;BME280;37364;46.974;18.916;2023-04-07T07:22:09;151308.81;;;3.81;100.00
51287;BME280;37364;46.974;18.916;2023-04-07T07:24:42;151250.84;;;3.58;100.00
51287;BME280;37364;46.974;18.916;2023-04-07T07:27:13;151226.38;;;3.48;100.00
51287;BME280;37364;46.974;18.916;2023-04-07T07:29:44;151283.03;;;3.70;100.00
51287;BME280;37364;46.974;18.916;2023-04-07T07:32:15;151274.03;;;3.67;100.00
51287;BME280;37364;46.974;18.916;2023-04-07T07:34:46;151248.25;;;3.56;100.00
51287;BME280;37364;46.974;18.916;2023-04-07T07:37:16;151267.56;;;3.64;100.00
51287;BME280;37364;46.974;18.916;2023-04-07T07:39:49;151277.88;;;3.68;100.00
51287;BME280;37364;46.974;18.916;2023-04-07T07:42:19;151219.94;;;3.45;100.00
51287;BME280;37364;46.974;18.916;2023-04-07T07:44:50;151284.34;;;3.71;100.00
51287;BME280;37364;46.974;18.916;2023-04-07T07:47:20;151265.00;;;3.63;100.00
51287;BME280;37364;46.974;18.916;2023-04-07T07:49:52;151257.25;;;3.60;100.00
51287;BME280;37364;46.974;18.916;2023-04-07T07:52:23;151246.97;;;3.56;100.00
51287;BME280;37364;46.974;18.916;2023-04-07T07:54:56;151302.34;;;3.78;100.00
51287;BME280;37364;46.974;18.916;2023-04-07T07:57:27;151288.22;;;3.72;100.00
51287;BME280;37364;46.974;18.916;2023-04-07T07:59:58;151328.16;;;3.88;100.00
51287;BME280;37364;46.974;18.916;2023-04-07T08:02:38;151323.00;;;3.86;100.00
51287;BME280;37364;46.974;18.916;2023-04-07T08:05:12;151316.53;;;3.84;100.00
51287;BME280;37364;46.974;18.916;2023-04-07T08:07:43;151328.16;;;3.88;100.00
51287;BME280;37364;46.974;18.916;2023-04-07T08:10:16;151352.63;;;3.98;100.00
51287;BME280;37364;46.974;18.916;2023-04-07T08:12:46;151343.59;;;3.94;100.00
51287;BME280;37364;46.974;18.916;2023-04-07T08:15:17;151359.06;;;4.01;100.00
51287;BME280;37364;46.974;18.916;2023-04-07T08:17:48;151366.75;;;4.04;100.00
51287;BME280;37364;46.974;18.916;2023-04-07T08:20:22;151364.19;;;4.03;100.00
51287;BME280;37364;46.974;18.916;2023-04-07T08:22:52;151377.09;;;4.08;100.00
51287;BME280;37364;46.974;18.916;2023-04-07T08:25:29;151402.88;;;4.18;100.00
51287;BME280;37364;46.974;18.916;2023-04-07T08:28:00;151353.91;;;3.99;100.00
51287;BME280;37364;46.974;18.916;2023-04-07T08:30:33;151323.00;;;3.86;100.00
51287;BME280;37364;46.974;18.916;2023-04-07T08:33:05;151323.00;;;3.86;100.00
51287;BME280;37364;46.974;18.916;2023-04-07T08:35:35;151295.91;;;3.75;100.00
51287;BME280;37364;46.974;18.916;2023-04-07T08:38:06;151280.47;;;3.69;100.00
51287;BME280;37364;46.974;18.916;2023-04-07T08:40:40;151323.00;;;3.86;100.00
51287;BME280;37364;46.974;18.916;2023-04-07T08:43:12;151265.00;;;3.63;100.00
51287;BME280;37364;46.974;18.916;2023-04-07T08:45:45;151324.28;;;3.87;100.00
51287;BME280;37364;46.974;18.916;2023-04-07T08:48:22;151276.59;;;3.68;100.00
51287;BME280;37364;46.974;18.916;2023-04-07T08:50:56;151249.56;;;3.57;100.00
51287;BME280;37364;46.974;18.916;2023-04-07T08:53:32;151249.56;;;3.57;100.00
51287;BME280;37364;46.974;18.916;2023-04-07T08:56:10;151256.00;;;3.60;100.00
51287;BME280;37364;46.974;18.916;2023-04-07T08:58:41;151250.84;;;3.58;100.00
51287;BME280;37364;46.974;18.916;2023-04-07T09:01:15;151283.03;;;3.70;100.00
51287;BME280;37364;46.974;18.916;2023-04-07T09:03:47;151212.19;;;3.42;100.00
51287;BME280;37364;46.974;18.916;2023-04-07T09:06:19;151222.50;;;3.46;100.00
51287;BME280;37364;46.974;18.916;2023-04-07T09:08:50;151225.09;;;3.47;100.00
51287;BME280;37364;46.974;18.916;2023-04-07T09:11:25;151208.31;;;3.41;100.00
51287;BME280;37364;46.974;18.916;2023-04-07T09:13:56;151199.31;;;3.37;100.00
51287;BME280;37364;46.974;18.916;2023-04-07T09:16:28;151173.56;;;3.27;100.00
51287;BME280;37364;46.974;18.916;2023-04-07T09:18:59;151212.19;;;3.42;100.00
51287;BME280;37364;46.974;18.916;2023-04-07T09:21:46;151186.44;;;3.32;100.00
51287;BME280;37364;46.974;18.916;2023-04-07T09:24:21;151219.94;;;3.45;100.00
51287;BME280;37364;46.974;18.916;2023-04-07T09:30:10;151286.88;;;3.72;100.00
51287;BME280;37364;46.974;18.916;2023-04-07T09:32:40;151283.03;;;3.70;100.00
51287;BME280;37364;46.974;18.916;2023-04-07T09:35:11;151231.53;;;3.50;100.00
51287;BME280;37364;46.974;18.916;2023-04-07T09:37:41;151230.25;;;3.49;100.00
51287;BME280;37364;46.974;18.916;2023-04-07T09:40:11;151334.56;;;3.91;100.00
51287;BME280;37364;46.974;18.916;2023-04-07T09:42:54;151268.91;;;3.65;100.00
51287;BME280;37364;46.974;18.916;2023-04-07T09:45:29;151199.31;;;3.37;100.00
51287;BME280;37364;46.974;18.916;2023-04-07T09:48:06;151289.50;;;3.73;100.00
51287;BME280;37364;46.974;18.916;2023-04-07T09:50:39;151299.78;;;3.77;100.00
51287;BME280;37364;46.974;18.916;2023-04-07T09:53:12;151227.66;;;3.48;100.00
51287;BME280;37364;46.974;18.916;2023-04-07T09:55:43;151223.78;;;3.47;100.00
51287;BME280;37364;46.974;18.916;2023-04-07T09:58:35;151276.59;;;3.68;100.00
51287;BME280;37364;46.974;18.916;2023-04-07T10:01:15;151232.78;;;3.50;100.00
51287;BME280;37364;46.974;18.916;2023-04-07T10:03:47;151346.16;;;3.95;100.00
51287;BME280;37364;46.974;18.916;2023-04-07T10:06:19;151320.41;;;3.85;100.00
51287;BME280;37364;46.974;18.916;2023-04-07T10:08:50;151353.91;;;3.99;100.00
51287;BME280;37364;46.974;18.916;2023-04-07T10:11:20;151350.03;;;3.97;100.00
51287;BME280;37364;46.974;18.916;2023-04-07T10:13:51;151458.28;;;4.40;100.00
51287;BME280;37364;46.974;18.916;2023-04-07T10:16:24;151324.28;;;3.87;100.00
51287;BME280;37364;46.974;18.916;2023-04-07T10:18:54;151333.28;;;3.90;100.00
51287;BME280;37364;46.974;18.916;2023-04-07T10:21:25;151420.88;;;4.25;100.00
51287;BME280;37364;46.974;18.916;2023-04-07T10:24:03;151405.41;;;4.19;100.00
51287;BME280;37364;46.974;18.916;2023-04-07T10:26:37;151534.28;;;4.70;100.00
51287;BME280;37364;46.974;18.916;2023-04-07T10:29:10;151530.47;;;4.69;100.00
51287;BME280;37364;46.974;18.916;2023-04-07T10:31:48;151612.94;;;5.02;100.00
51287;BME280;37364;46.974;18.916;2023-04-07T10:37:20;151540.78;;;4.73;100.00
51287;BME280;37364;46.974;18.916;2023-04-07T10:40:26;151570.44;;;4.85;100.00
51287;BME280;37364;46.974;18.916;2023-04-07T10:42:45;151634.88;;;5.10;100.00
51287;BME280;37364;46.974;18.916;2023-04-07T10:48:25;151690.34;;;5.32;100.00
51287;BME280;37364;46.974;18.916;2023-04-07T10:51:13;151677.47;;;5.27;100.00
51287;BME280;37364;46.974;18.916;2023-04-07T10:57:12;151790.97;;;5.72;100.00
51287;BME280;37364;46.974;18.916;2023-04-07T11:00:14;151788.38;;;5.71;100.00
51287;BME280;37364;46.974;18.916;2023-04-07T11:02:45;151729.03;;;5.48;100.00
51287;BME280;37364;46.974;18.916;2023-04-07T11:05:22;151645.19;;;5.14;100.00
51287;BME280;37364;46.974;18.916;2023-04-07T11:07:53;151665.81;;;5.23;100.00
51287;BME280;37364;46.974;18.916;2023-04-07T11:10:28;151689.06;;;5.32;100.00
51287;BME280;37364;46.974;18.916;2023-04-07T11:13:05;151629.72;;;5.08;100.00
51287;BME280;37364;46.974;18.916;2023-04-07T11:15:37;151640.03;;;5.12;100.00
51287;BME280;37364;46.974;18.916;2023-04-07T11:18:28;151534.28;;;4.70;100.00
51287;BME280;37364;46.974;18.916;2023-04-07T11:21:02;151520.16;;;4.65;100.00
51287;BME280;37364;46.974;18.916;2023-04-07T11:23:37;151534.28;;;4.70;100.00
51287;BME280;37364;46.974;18.916;2023-04-07T11:26:09;151534.28;;;4.70;100.00
51287;BME280;37364;46.974;18.916;2023-04-07T11:28:44;151598.81;;;4.96;100.00
51287;BME280;37364;46.974;18.916;2023-04-07T11:31:20;151607.78;;;5.00;100.00
51287;BME280;37364;46.974;18.916;2023-04-07T11:33:56;151620.69;;;5.05;100.00
51287;BME280;37364;46.974;18.916;2023-04-07T11:36:32;151616.81;;;5.03;100.00
51287;BME280;37364;46.974;18.916;2023-04-07T11:39:05;151632.28;;;5.09;100.00
51287;BME280;37364;46.974;18.916;2023-04-07T11:41:48;151603.97;;;4.98;100.00
51287;BME280;37364;46.974;18.916;2023-04-07T11:44:19;151580.72;;;4.89;100.00
51287;BME280;37364;46.974;18.916;2023-04-07T11:46:52;151591.03;;;4.93;100.00
51287;BME280;37364;46.974;18.916;2023-04-07T11:49:24;151629.72;;;5.08;100.00
51287;BME280;37364;46.974;18.916;2023-04-07T11:52:02;151713.56;;;5.42;100.00
51287;BME280;37364;46.974;18.916;2023-04-07T11:54:40;151726.44;;;5.47;100.00
51287;BME280;37364;46.974;18.916;2023-04-07T11:57:13;151774.19;;;5.66;100.00
51287;BME280;37364;46.974;18.916;2023-04-07T11:59:44;151725.16;;;5.46;100.00
51287;BME280;37364;46.974;18.916;2023-04-07T12:02:30;151769.00;;;5.64;100.00
51287;BME280;37364;46.974;18.916;2023-04-07T12:05:00;151741.94;;;5.53;100.00
51287;BME280;37364;46.974;18.916;2023-04-07T12:07:34;151807.72;;;5.79;100.00
51287;BME280;37364;46.974;18.916;2023-04-07T12:10:20;151709.69;;;5.40;100.00
51287;BME280;37364;46.974;18.916;2023-04-07T12:12:52;151738.06;;;5.51;100.00
51287;BME280;37364;46.974;18.916;2023-04-07T12:15:25;151730.31;;;5.48;100.00
51287;BME280;37364;46.974;18.916;2023-04-07T12:17:56;151726.44;;;5.47;100.00
51287;BME280;37364;46.974;18.916;2023-04-07T12:20:27;151758.69;;;5.60;100.00
51287;BME280;37364;46.974;18.916;2023-04-07T12:23:00;151785.81;;;5.70;100.00
51287;BME280;37364;46.974;18.916;2023-04-07T12:25:34;151753.53;;;5.58;100.00
51287;BME280;37364;46.974;18.916;2023-04-07T12:28:04;151691.59;;;5.33;100.00
51287;BME280;37364;46.974;18.916;2023-04-07T12:30:35;151691.59;;;5.33;100.00
51287;BME280;37364;46.974;18.916;2023-04-07T12:33:09;151716.13;;;5.43;100.00
51287;BME280;37364;46.974;18.916;2023-04-07T12:35:39;151775.44;;;5.66;100.00
51287;BME280;37364;46.974;18.916;2023-04-07T12:38:13;151797.41;;;5.75;100.00
51287;BME280;37364;46.974;18.916;2023-04-07T12:40:44;151712.28;;;5.41;100.00
51287;BME280;37364;46.974;18.916;2023-04-07T12:43:15;151627.13;;;5.07;100.00
51287;BME280;37364;46.974;18.916;2023-04-07T12:45:45;151640.03;;;5.12;100.00
51287;BME280;37364;46.974;18.916;2023-04-07T12:48:16;151601.34;;;4.97;100.00
51287;BME280;37364;46.974;18.916;2023-04-07T12:50:47;151584.63;;;4.90;100.00
51287;BME280;37364;46.974;18.916;2023-04-07T12:53:20;151638.78;;;5.12;100.00
51287;BME280;37364;46.974;18.916;2023-04-07T12:55:51;151665.81;;;5.23;100.00
51287;BME280;37364;46.974;18.916;2023-04-07T12:58:23;151627.13;;;5.07;100.00
51287;BME280;37364;46.974;18.916;2023-04-07T13:00:54;151612.94;;;5.02;100.00
51287;BME280;37364;46.974;18.916;2023-04-07T13:03:24;151609.13;;;5.00;100.00
51287;BME280;37364;46.974;18.916;2023-04-07T13:05:55;151618.16;;;5.04;100.00
51287;BME280;37364;46.974;18.916;2023-04-07T13:08:33;151610.38;;;5.01;100.00
51287;BME280;37364;46.974;18.916;2023-04-07T13:11:03;151615.53;;;5.03;100.00
51287;BME280;37364;46.974;18.916;2023-04-07T13:13:34;151629.72;;;5.08;100.00
51287;BME280;37364;46.974;18.916;2023-04-07T13:16:04;151597.47;;;4.95;100.00
51287;BME280;37364;46.974;18.916;2023-04-07T13:18:35;151591.03;;;4.93;100.00
51287;BME280;37364;46.974;18.916;2023-04-07T13:21:06;151610.38;;;5.01;100.00
51287;BME280;37364;46.974;18.916;2023-04-07T13:23:59;151619.44;;;5.04;100.00
51287;BME280;37364;46.974;18.916;2023-04-07T13:26:30;151624.56;;;5.06;100.00
51287;BME280;37364;46.974;18.916;2023-04-07T13:29:01;151650.34;;;5.17;100.00